createdAt,value
2023-05-20T00:01:56.128Z,4.97
2023-05-20T00:04:23.004Z,4.67
2023-05-20T00:06:51.952Z,4.97
2023-05-20T00:09:18.759Z,5.53
2023-05-20T00:11:46.248Z,4.80
2023-05-20T00:14:13.078Z,5.03
2023-05-20T00:16:39.592Z,5.13
2023-05-20T00:19:06.468Z,5.13
2023-05-20T00:21:33.966Z,4.70
2023-05-20T00:24:00.985Z,5.70
2023-05-20T00:26:27.731Z,4.90
2023-05-20T00:28:54.292Z,4.67
2023-05-20T00:31:21.778Z,5.00
2023-05-20T00:33:48.496Z,5.40
2023-05-20T00:36:14.909Z,5.50
2023-05-20T00:38:43.729Z,5.37
2023-05-20T00:41:10.299Z,5.23
2023-05-20T00:43:37.044Z,5.90
2023-05-20T00:46:03.765Z,5.43
2023-05-20T00:48:40.853Z,5.17
2023-05-20T00:51:08.070Z,5.93
2023-05-20T00:53:36.451Z,6.40
2023-05-20T00:56:04.498Z,5.43
2023-05-20T00:58:31.538Z,5.83
2023-05-20T01:00:58.449Z,6.17
2023-05-20T01:03:25.178Z,5.60
2023-05-20T01:05:51.799Z,6.00
2023-05-20T01:08:19.121Z,5.60
2023-05-20T01:10:49.338Z,5.70
2023-05-20T01:13:20.780Z,5.50
2023-05-20T01:15:49.672Z,5.47
2023-05-20T01:18:20.575Z,5.83
2023-05-20T01:20:50.685Z,5.60
2023-05-20T01:23:17.322Z,5.60
2023-05-20T01:25:43.908Z,5.97
2023-05-20T01:28:10.666Z,6.57
2023-05-20T01:30:46.290Z,6.40
2023-05-20T01:33:14.870Z,5.73
2023-05-20T01:35:42.437Z,6.27
2023-05-20T01:38:12.187Z,6.10
2023-05-20T01:40:39.659Z,6.13
2023-05-20T01:43:09.499Z,6.57
2023-05-20T01:45:36.470Z,6.10
2023-05-20T01:48:04.373Z,6.10
2023-05-20T01:50:32.706Z,6.10
2023-05-20T01:52:59.199Z,6.70
2023-05-20T01:55:25.964Z,6.40
2023-05-20T01:57:52.788Z,6.50
2023-05-20T02:00:19.395Z,6.87
2023-05-20T02:02:46.049Z,6.23
2023-05-20T02:05:13.041Z,6.53
2023-05-20T02:07:39.581Z,6.57
2023-05-20T02:10:09.257Z,6.30
2023-05-20T02:12:36.204Z,6.70
2023-05-20T02:15:02.887Z,6.53
2023-05-20T02:17:31.385Z,6.43
2023-05-20T02:19:57.902Z,6.53
2023-05-20T02:22:24.427Z,7.30
2023-05-20T02:24:50.973Z,7.10
2023-05-20T02:27:17.462Z,6.87
2023-05-20T02:29:44.574Z,6.40
2023-05-20T02:32:11.501Z,6.73
2023-05-20T02:34:37.980Z,6.87
2023-05-20T02:37:05.706Z,7.57
2023-05-20T02:39:32.291Z,7.27
2023-05-20T02:41:58.762Z,7.00
2023-05-20T02:44:25.578Z,7.23
2023-05-20T02:46:52.706Z,7.40
2023-05-20T02:49:19.265Z,7.50
2023-05-20T02:51:45.736Z,6.80
2023-05-20T02:54:12.531Z,7.70
2023-05-20T02:56:39.319Z,7.13
2023-05-20T02:59:07.385Z,7.03
2023-05-20T03:01:35.764Z,7.17
2023-05-20T03:04:03.441Z,7.87
2023-05-20T03:06:32.085Z,7.63
2023-05-20T03:08:59.689Z,8.23
2023-05-20T03:11:26.769Z,8.17
2023-05-20T03:13:53.583Z,7.67
2023-05-20T03:16:20.437Z,7.17
2023-05-20T03:18:47.199Z,7.83
2023-05-20T03:21:13.726Z,7.90
2023-05-20T03:23:40.203Z,8.07
2023-05-20T03:26:06.869Z,7.73
2023-05-20T03:28:33.336Z,8.17
2023-05-20T03:30:59.904Z,8.30
2023-05-20T03:33:26.921Z,8.53
2023-05-20T03:35:53.695Z,8.30
2023-05-20T03:38:20.509Z,8.80
2023-05-20T03:40:47.034Z,7.63
2023-05-20T03:43:16.138Z,8.40
2023-05-20T03:45:43.321Z,9.20
2023-05-20T03:48:09.740Z,9.17
2023-05-20T03:50:36.183Z,8.80
2023-05-20T03:53:02.672Z,8.23
2023-05-20T03:55:37.767Z,9.17
2023-05-20T03:58:04.275Z,9.70
2023-05-20T04:00:31.859Z,9.20
2023-05-20T04:02:58.856Z,9.40
2023-05-20T04:05:25.717Z,9.90
2023-05-20T04:07:52.478Z,9.70
2023-05-20T04:10:20.530Z,9.03
2023-05-20T04:12:47.004Z,9.47
2023-05-20T04:15:15.746Z,9.87
2023-05-20T04:17:43.850Z,10.07
2023-05-20T04:20:12.250Z,10.13
2023-05-20T04:22:40.052Z,10.00
2023-05-20T04:25:08.005Z,10.03
2023-05-20T04:27:36.091Z,9.50
2023-05-20T04:30:02.881Z,9.97
2023-05-20T04:32:29.666Z,9.60
2023-05-20T04:34:57.363Z,9.97
2023-05-20T04:37:23.850Z,9.90
2023-05-20T04:39:51.130Z,10.47
2023-05-20T04:42:18.951Z,10.77
2023-05-20T04:44:48.790Z,10.60
2023-05-20T04:47:16.222Z,9.70
2023-05-20T04:49:46.084Z,10.10
2023-05-20T04:52:12.628Z,9.73
2023-05-20T04:54:40.549Z,10.77
2023-05-20T04:57:07.307Z,10.40
2023-05-20T04:59:35.100Z,9.27
2023-05-20T05:02:02.748Z,10.37
2023-05-20T05:04:29.811Z,10.17
2023-05-20T05:06:56.590Z,10.40
2023-05-20T05:09:23.054Z,11.00
2023-05-20T05:11:49.581Z,10.10
2023-05-20T05:14:19.333Z,11.10
2023-05-20T05:16:45.896Z,10.23
2023-05-20T05:19:13.811Z,9.90
2023-05-20T05:21:40.566Z,9.93
2023-05-20T05:24:07.592Z,10.70
2023-05-20T05:26:34.070Z,10.97
2023-05-20T05:29:00.633Z,10.63
2023-05-20T05:31:27.065Z,10.03
2023-05-20T05:33:54.113Z,10.80
2023-05-20T05:36:20.851Z,11.23
2023-05-20T05:38:47.551Z,9.63
2023-05-20T05:41:14.668Z,10.37
2023-05-20T05:43:43.140Z,10.07
2023-05-20T05:46:10.079Z,9.70
2023-05-20T05:48:37.265Z,11.20
2023-05-20T05:51:04.437Z,9.60
2023-05-20T05:53:30.896Z,10.10
2023-05-20T05:55:57.613Z,9.80
2023-05-20T05:58:25.144Z,10.10
2023-05-20T06:00:53.085Z,8.97
2023-05-20T06:03:20.008Z,10.03
2023-05-20T06:05:47.433Z,10.87
2023-05-20T06:08:14.164Z,10.63
2023-05-20T06:10:40.817Z,10.90
2023-05-20T06:13:07.531Z,9.37
2023-05-20T06:15:34.334Z,9.83
2023-05-20T06:18:01.068Z,9.63
2023-05-20T06:20:27.608Z,10.40
2023-05-20T06:22:54.113Z,10.40
2023-05-20T06:25:23.213Z,9.20
2023-05-20T06:27:50.366Z,9.60
2023-05-20T06:30:17.737Z,9.57
2023-05-20T06:32:45.035Z,8.52
2023-05-20T06:35:13.110Z,9.50
2023-05-20T06:37:39.735Z,8.45
2023-05-20T06:40:07.632Z,9.38
2023-05-20T06:42:34.506Z,9.18
2023-05-20T06:45:01.276Z,9.80
2023-05-20T06:47:27.784Z,9.32
2023-05-20T06:49:54.659Z,8.93
2023-05-20T06:52:21.168Z,9.25
2023-05-20T06:54:47.671Z,9.10
2023-05-20T06:57:14.172Z,8.50
2023-05-20T06:59:41.927Z,8.05
2023-05-20T07:02:10.667Z,8.40
2023-05-20T07:04:37.353Z,7.85
2023-05-20T07:07:03.895Z,7.68
2023-05-20T07:09:30.480Z,6.88
2023-05-20T07:11:57.403Z,7.00
2023-05-20T07:14:24.109Z,6.82
2023-05-20T07:16:52.235Z,6.43
2023-05-20T07:19:19.041Z,6.75
2023-05-20T07:21:50.327Z,6.80
2023-05-20T07:24:17.305Z,6.63
2023-05-20T07:26:44.162Z,6.47
2023-05-20T07:29:11.009Z,6.03
2023-05-20T07:31:37.602Z,6.40
2023-05-20T07:34:04.369Z,6.50
2023-05-20T07:36:32.557Z,6.55
2023-05-20T07:39:03.986Z,6.90
2023-05-20T07:41:31.968Z,6.97
2023-05-20T07:43:58.602Z,6.50
2023-05-20T07:46:26.229Z,6.40
2023-05-20T07:48:52.884Z,6.45
2023-05-20T07:51:19.598Z,6.82
2023-05-20T07:53:46.336Z,6.45
2023-05-20T07:56:13.065Z,6.65
2023-05-20T07:58:43.827Z,6.43
2023-05-20T08:01:10.668Z,6.50
2023-05-20T08:03:37.360Z,6.10
2023-05-20T08:06:04.419Z,6.20
2023-05-20T08:08:31.283Z,6.78
2023-05-20T08:10:58.011Z,6.60
2023-05-20T08:13:25.106Z,6.82
2023-05-20T08:15:55.607Z,6.13
2023-05-20T08:18:22.883Z,6.70
2023-05-20T08:20:51.369Z,6.47
2023-05-20T08:23:17.982Z,6.30
2023-05-20T08:25:47.010Z,6.32
2023-05-20T08:28:13.462Z,6.18
2023-05-20T08:30:40.584Z,6.32
2023-05-20T08:33:08.628Z,6.50
2023-05-20T08:35:39.986Z,6.32
2023-05-20T08:38:07.169Z,6.07
2023-05-20T08:40:37.223Z,6.57
2023-05-20T08:43:04.768Z,6.22
2023-05-20T08:45:33.600Z,6.45
2023-05-20T08:48:01.061Z,6.55
2023-05-20T08:50:28.157Z,6.82
2023-05-20T08:52:57.791Z,6.63
2023-05-20T08:55:37.250Z,6.65
2023-05-20T08:58:04.065Z,6.55
2023-05-20T09:00:30.861Z,6.75
2023-05-20T09:03:00.716Z,6.82
2023-05-20T09:05:27.993Z,6.65
2023-05-20T09:08:05.513Z,6.57
2023-05-20T09:10:33.560Z,6.00
2023-05-20T09:13:03.209Z,6.38
2023-05-20T09:15:35.422Z,7.15
2023-05-20T09:18:08.879Z,6.90
2023-05-20T09:20:37.735Z,6.60
2023-05-20T09:23:10.885Z,6.80
2023-05-20T09:25:38.239Z,6.90
2023-05-20T09:28:06.495Z,6.57
2023-05-20T09:30:33.887Z,6.70
2023-05-20T09:33:02.321Z,6.95
2023-05-20T09:35:29.193Z,6.55
2023-05-20T09:37:57.662Z,7.00
2023-05-20T09:40:29.182Z,6.50
2023-05-20T09:43:03.896Z,6.40
2023-05-20T09:45:31.026Z,6.68
2023-05-20T09:47:58.215Z,6.68
2023-05-20T09:50:25.811Z,6.15
2023-05-20T09:52:54.543Z,5.65
2023-05-20T09:55:24.556Z,5.47
2023-05-20T09:57:53.202Z,5.80
2023-05-20T10:00:19.860Z,5.45
2023-05-20T10:02:48.899Z,5.60
2023-05-20T10:05:24.149Z,5.97
2023-05-20T10:08:02.976Z,5.47
2023-05-20T10:11:15.104Z,5.30
2023-05-20T10:14:14.575Z,4.85
2023-05-20T10:17:02.994Z,5.18
2023-05-20T10:19:33.869Z,5.60
2023-05-20T10:22:10.654Z,5.80
2023-05-20T10:24:41.913Z,6.07
2023-05-20T10:27:15.996Z,5.60
2023-05-20T10:29:53.803Z,5.80
2023-05-20T10:32:35.023Z,5.90
2023-05-20T10:35:05.353Z,5.60
2023-05-20T10:37:44.016Z,5.10
2023-05-20T10:40:13.480Z,5.53
2023-05-20T10:42:40.901Z,5.80
2023-05-20T10:45:08.366Z,6.20
2023-05-20T10:47:35.698Z,5.60
2023-05-20T10:50:05.044Z,5.40
2023-05-20T10:52:37.216Z,5.80
2023-05-20T10:55:05.174Z,5.45
2023-05-20T10:57:35.336Z,5.57
2023-05-20T11:00:01.945Z,5.90
2023-05-20T11:02:29.341Z,4.95
2023-05-20T11:04:59.238Z,6.07
2023-05-20T11:07:30.006Z,5.82
2023-05-20T11:09:59.864Z,5.70
2023-05-20T11:12:28.197Z,5.70
2023-05-20T11:14:55.672Z,6.70
2023-05-20T11:17:22.430Z,6.03
2023-05-20T11:19:48.966Z,5.70
2023-05-20T11:22:15.914Z,5.90
2023-05-20T11:24:42.705Z,5.32
2023-05-20T11:27:09.530Z,6.00
2023-05-20T11:29:36.153Z,5.93
2023-05-20T11:32:04.029Z,5.82
2023-05-20T11:34:38.153Z,6.20
2023-05-20T11:37:09.420Z,6.00
2023-05-20T11:39:37.166Z,5.75
2023-05-20T11:42:03.961Z,6.03
2023-05-20T11:44:30.723Z,6.25
2023-05-20T11:47:01.841Z,5.75
2023-05-20T11:49:28.951Z,6.10
2023-05-20T11:51:56.903Z,5.75
2023-05-20T11:54:24.789Z,5.97
2023-05-20T11:56:52.337Z,5.93
2023-05-20T11:59:19.454Z,5.90
2023-05-20T12:01:46.354Z,5.80
2023-05-20T12:04:17.548Z,6.00
2023-05-20T12:06:44.522Z,5.90
2023-05-20T12:09:11.653Z,6.03
2023-05-20T12:11:41.470Z,5.75
2023-05-20T12:14:09.119Z,5.95
2023-05-20T12:16:36.898Z,6.05
2023-05-20T12:19:04.127Z,6.00
2023-05-20T12:21:31.554Z,5.88
2023-05-20T12:24:01.352Z,6.60
2023-05-20T12:26:29.384Z,6.13
2023-05-20T12:28:56.280Z,6.28
2023-05-20T12:31:23.067Z,6.75
2023-05-20T12:33:49.716Z,6.32
2023-05-20T12:36:16.401Z,6.55
2023-05-20T12:38:43.300Z,6.43
2023-05-20T12:41:09.821Z,6.95
2023-05-20T12:43:37.451Z,6.70
2023-05-20T12:46:05.210Z,6.85
2023-05-20T12:48:32.222Z,6.40
2023-05-20T12:50:59.461Z,7.20
2023-05-20T12:53:26.394Z,6.68
2023-05-20T12:55:53.179Z,6.55
2023-05-20T12:58:19.699Z,6.80
2023-05-20T13:00:46.375Z,6.20
2023-05-20T13:03:12.994Z,7.35
2023-05-20T13:05:39.837Z,6.63
2023-05-20T13:08:06.337Z,6.95
2023-05-20T13:10:33.650Z,6.60
2023-05-20T13:13:00.596Z,6.25
2023-05-20T13:15:28.103Z,6.40
2023-05-20T13:17:54.962Z,6.18
2023-05-20T13:20:21.687Z,6.78
2023-05-20T13:22:50.297Z,6.38
2023-05-20T13:25:17.190Z,6.57
2023-05-20T13:27:44.102Z,6.88
2023-05-20T13:30:13.307Z,6.35
2023-05-20T13:32:40.096Z,6.20
2023-05-20T13:35:07.257Z,6.13
2023-05-20T13:37:33.714Z,5.80
2023-05-20T13:40:00.484Z,6.20
2023-05-20T13:42:27.252Z,6.25
2023-05-20T13:44:53.810Z,6.22
2023-05-20T13:47:20.318Z,6.55
2023-05-20T13:49:46.755Z,6.35
2023-05-20T13:52:13.701Z,6.50
2023-05-20T13:54:40.539Z,6.68
2023-05-20T13:57:08.100Z,6.63
2023-05-20T13:59:35.207Z,6.93
2023-05-20T14:02:02.175Z,6.57
2023-05-20T14:04:29.321Z,6.70
2023-05-20T14:06:55.892Z,6.63
2023-05-20T14:09:22.650Z,6.43
2023-05-20T14:11:54.357Z,6.40
2023-05-20T14:14:23.686Z,6.50
2023-05-20T14:16:50.471Z,7.00
2023-05-20T14:19:17.053Z,6.90
2023-05-20T14:21:43.839Z,6.90
2023-05-20T14:24:10.877Z,6.40
2023-05-20T14:26:37.353Z,5.95
2023-05-20T14:29:03.929Z,6.30
2023-05-20T14:31:30.673Z,6.28
2023-05-20T14:33:57.570Z,6.47
2023-05-20T14:36:24.174Z,6.30
2023-05-20T14:38:50.760Z,6.00
2023-05-20T14:41:17.481Z,6.45
2023-05-20T14:43:43.942Z,6.22
2023-05-20T14:46:11.052Z,5.90
2023-05-20T14:48:37.671Z,6.25
2023-05-20T14:51:04.508Z,5.85
2023-05-20T14:53:32.234Z,6.60
2023-05-20T14:56:00.458Z,6.80
2023-05-20T14:58:26.925Z,6.00
2023-05-20T15:00:53.632Z,6.53
2023-05-20T15:03:20.665Z,6.30
2023-05-20T15:05:47.244Z,6.40
2023-05-20T15:08:13.837Z,6.32
2023-05-20T15:10:40.796Z,5.95
2023-05-20T15:13:07.541Z,6.47
2023-05-20T15:15:35.577Z,6.80
2023-05-20T15:18:02.547Z,6.65
2023-05-20T15:20:29.004Z,6.85
2023-05-20T15:22:57.617Z,6.63
2023-05-20T15:25:25.590Z,6.30
2023-05-20T15:27:52.044Z,6.13
2023-05-20T15:30:18.874Z,6.60
2023-05-20T15:32:45.440Z,6.55
2023-05-20T15:35:12.442Z,6.80
2023-05-20T15:37:39.286Z,6.82
2023-05-20T15:40:06.624Z,6.97
2023-05-20T15:42:33.141Z,6.80
2023-05-20T15:45:02.093Z,6.50
2023-05-20T15:47:28.608Z,6.35
2023-05-20T15:49:57.339Z,6.65
2023-05-20T15:52:23.869Z,6.78
2023-05-20T15:54:50.654Z,6.18
2023-05-20T15:57:17.081Z,6.47
2023-05-20T15:59:45.727Z,6.45
2023-05-20T16:02:12.451Z,6.45
2023-05-20T16:04:40.179Z,6.43
2023-05-20T16:07:06.937Z,6.82
2023-05-20T16:09:33.510Z,6.65
2023-05-20T16:12:00.018Z,6.22
2023-05-20T16:14:27.681Z,6.80
2023-05-20T16:16:54.131Z,6.40
2023-05-20T16:19:20.998Z,6.82
2023-05-20T16:21:47.434Z,6.60
2023-05-20T16:24:14.442Z,6.43
2023-05-20T16:26:40.979Z,6.47
2023-05-20T16:29:08.009Z,6.50
2023-05-20T16:31:34.572Z,7.22
2023-05-20T16:34:01.123Z,6.80
2023-05-20T16:36:27.630Z,7.03
2023-05-20T16:38:54.396Z,6.78
2023-05-20T16:41:20.911Z,6.70
2023-05-20T16:43:47.377Z,6.70
2023-05-20T16:46:14.605Z,6.38
2023-05-20T16:48:41.381Z,6.90
2023-05-20T16:51:08.880Z,6.70
2023-05-20T16:53:35.521Z,6.60
2023-05-20T16:56:04.743Z,6.88
2023-05-20T16:58:31.989Z,6.60
2023-05-20T17:00:58.518Z,6.32
2023-05-20T17:03:25.173Z,6.75
2023-05-20T17:05:51.674Z,6.38
2023-05-20T17:08:18.536Z,6.55
2023-05-20T17:10:49.464Z,6.70
2023-05-20T17:13:17.515Z,6.80
2023-05-20T17:15:43.951Z,6.40
2023-05-20T17:18:10.469Z,6.57
2023-05-20T17:20:36.977Z,6.70
2023-05-20T17:23:03.472Z,6.45
2023-05-20T17:25:30.032Z,6.63
2023-05-20T17:27:56.636Z,6.90
2023-05-20T17:30:23.434Z,7.10
2023-05-20T17:32:51.711Z,6.60
2023-05-20T17:35:20.786Z,6.43
2023-05-20T17:37:47.480Z,6.45
2023-05-20T17:40:14.065Z,6.72
2023-05-20T17:42:41.055Z,6.82
2023-05-20T17:45:08.328Z,6.65
2023-05-20T17:47:35.394Z,7.28
2023-05-20T17:50:02.804Z,7.50
2023-05-20T17:52:29.672Z,6.55
2023-05-20T17:54:57.497Z,6.53
2023-05-20T17:57:24.080Z,6.45
2023-05-20T17:59:50.886Z,6.65
2023-05-20T18:02:17.663Z,7.00
2023-05-20T18:04:44.158Z,6.75
2023-05-20T18:07:13.128Z,6.53
2023-05-20T18:09:39.711Z,6.95
2023-05-20T18:12:07.684Z,6.53
2023-05-20T18:14:34.193Z,7.03
2023-05-20T18:17:01.266Z,6.40
2023-05-20T18:19:28.219Z,6.80
2023-05-20T18:21:56.060Z,7.15
2023-05-20T18:24:22.597Z,7.72
2023-05-20T18:26:49.269Z,7.10
2023-05-20T18:29:16.067Z,7.20
2023-05-20T18:31:43.687Z,6.53
2023-05-20T18:34:10.854Z,6.80
2023-05-20T18:36:37.561Z,6.82
2023-05-20T18:39:05.120Z,6.43
2023-05-20T18:41:45.825Z,7.20
2023-05-20T18:44:15.329Z,6.78
2023-05-20T18:46:42.230Z,6.57
2023-05-20T18:49:11.073Z,7.15
2023-05-20T18:51:38.754Z,7.00
2023-05-20T18:54:05.745Z,6.47
2023-05-20T18:56:36.086Z,6.60
2023-05-20T18:59:02.713Z,7.00
2023-05-20T19:01:29.335Z,7.55
2023-05-20T19:03:57.956Z,6.78
2023-05-20T19:06:24.479Z,6.95
2023-05-20T19:08:53.314Z,6.70
2023-05-20T19:11:20.787Z,6.70
2023-05-20T19:13:47.643Z,6.70
2023-05-20T19:16:14.195Z,7.32
2023-05-20T19:18:40.860Z,7.20
2023-05-20T19:21:07.547Z,7.32
2023-05-20T19:23:34.320Z,8.07
2023-05-20T19:26:00.909Z,7.50
2023-05-20T19:28:27.808Z,7.75
2023-05-20T19:30:54.324Z,7.80
2023-05-20T19:33:21.491Z,7.05
2023-05-20T19:35:48.501Z,7.43
2023-05-20T19:38:15.540Z,7.57
2023-05-20T19:40:45.886Z,8.65
2023-05-20T19:43:12.635Z,7.68
2023-05-20T19:45:39.656Z,7.65
2023-05-20T19:48:06.930Z,7.80
2023-05-20T19:50:33.779Z,7.57
2023-05-20T19:53:01.543Z,7.53
2023-05-20T19:55:29.789Z,8.40
2023-05-20T19:57:56.786Z,8.00
2023-05-20T20:00:23.601Z,8.20
2023-05-20T20:02:50.112Z,8.45
2023-05-20T20:05:16.864Z,7.80
2023-05-20T20:07:43.703Z,8.10
2023-05-20T20:10:11.970Z,7.60
2023-05-20T20:12:38.704Z,8.30
2023-05-20T20:15:05.693Z,8.55
2023-05-20T20:17:33.673Z,7.80
2023-05-20T20:20:00.919Z,7.65
2023-05-20T20:22:27.585Z,7.55
2023-05-20T20:24:54.365Z,7.50
2023-05-20T20:27:24.110Z,7.60
2023-05-20T20:29:51.379Z,7.57
2023-05-20T20:32:20.186Z,7.13
2023-05-20T20:34:47.831Z,7.25
2023-05-20T20:37:15.417Z,7.88
2023-05-20T20:39:43.158Z,8.15
2023-05-20T20:42:09.651Z,7.07
2023-05-20T20:44:40.236Z,8.30
2023-05-20T20:47:07.896Z,9.60
2023-05-20T20:49:35.272Z,8.30
2023-05-20T20:52:02.021Z,8.30
2023-05-20T20:54:28.526Z,8.52
2023-05-20T20:56:56.923Z,8.10
2023-05-20T20:59:26.280Z,8.63
2023-05-20T21:01:53.200Z,8.18
2023-05-20T21:04:19.908Z,8.13
2023-05-20T21:06:47.155Z,7.97
2023-05-20T21:09:14.346Z,7.80
2023-05-20T21:11:42.599Z,7.47
2023-05-20T21:14:10.352Z,8.60
2023-05-20T21:16:39.063Z,8.82
2023-05-20T21:19:06.093Z,8.68
2023-05-20T21:21:32.587Z,8.63
2023-05-20T21:23:59.064Z,8.43
2023-05-20T21:26:26.137Z,8.65
2023-05-20T21:28:52.900Z,9.82
2023-05-20T21:31:19.773Z,9.02
2023-05-20T21:33:46.412Z,8.55
2023-05-20T21:36:15.286Z,7.88
2023-05-20T21:38:41.724Z,8.85
2023-05-20T21:41:08.476Z,8.13
2023-05-20T21:43:36.084Z,8.77
2023-05-20T21:46:05.269Z,8.73
2023-05-20T21:48:32.484Z,9.18
2023-05-20T21:50:59.000Z,8.95
2023-05-20T21:53:25.770Z,8.63
2023-05-20T21:55:54.557Z,8.85
2023-05-20T21:58:25.029Z,8.93
2023-05-20T22:00:51.733Z,8.20
2023-05-20T22:03:18.385Z,8.65
2023-05-20T22:05:46.111Z,8.43
2023-05-20T22:08:12.900Z,8.65
2023-05-20T22:10:40.230Z,8.32
2023-05-20T22:13:07.119Z,7.95
2023-05-20T22:15:34.209Z,8.65
2023-05-20T22:18:04.217Z,8.60
2023-05-20T22:20:34.120Z,8.68
2023-05-20T22:23:01.681Z,8.82
2023-05-20T22:25:28.190Z,8.13
2023-05-20T22:27:54.726Z,8.43
2023-05-20T22:30:21.275Z,8.70
2023-05-20T22:32:47.863Z,8.82
2023-05-20T22:35:14.520Z,8.65
2023-05-20T22:37:42.655Z,8.60
2023-05-20T22:40:10.197Z,8.20
2023-05-20T22:42:36.685Z,9.27
2023-05-20T22:45:03.510Z,8.13
2023-05-20T22:47:30.300Z,9.30
2023-05-20T22:50:02.632Z,9.05
2023-05-20T22:52:29.660Z,8.48
2023-05-20T22:54:56.625Z,8.77
2023-05-20T22:57:23.139Z,8.25
2023-05-20T22:59:52.411Z,8.25
2023-05-20T23:02:20.709Z,8.00
2023-05-20T23:04:47.531Z,8.75
2023-05-20T23:07:15.020Z,8.48
2023-05-20T23:09:42.521Z,8.82
2023-05-20T23:12:10.152Z,7.95
2023-05-20T23:14:36.669Z,8.48
2023-05-20T23:17:03.559Z,8.38
2023-05-20T23:19:30.382Z,8.65
2023-05-20T23:21:59.696Z,8.95
2023-05-20T23:24:26.965Z,7.68
2023-05-20T23:26:54.430Z,8.63
2023-05-20T23:29:21.508Z,7.93
2023-05-20T23:31:49.385Z,8.35
2023-05-20T23:34:19.894Z,9.65
2023-05-20T23:36:49.144Z,8.80
2023-05-20T23:39:18.309Z,8.35
2023-05-20T23:41:45.097Z,8.88
2023-05-20T23:44:16.460Z,8.27
2023-05-20T23:46:42.922Z,8.98
2023-05-20T23:49:10.336Z,8.90
2023-05-20T23:51:36.864Z,8.77
2023-05-20T23:54:03.475Z,9.38
2023-05-20T23:56:29.937Z,9.15
2023-05-20T23:58:58.481Z,9.10
